Merlin 3 — J8B3054 — position and weather

sailwx.info

Track history (hours):
 
Tides and Currents Weather Stations Pressure Air Temp Water Temp Dewpoint Dewpoint Depression Visibility Wind Speed Wind Dir Waves Ship Positions

Merlin 3

Last reported at 2018-Jun-16 23:43 UTC. Time now 2018-Jun-20 07:07 UTC.
Position S 07°05' E 012°15'.

Length 50 m; draft 2.3 m.

Type: Cargo ship. MMSI: 377773000.

Date/timePositionNaut miles runAvg speedWind from/ knotsBaromVisibWave heightAir tempDewpointWater temp
2018-Jun-16 23:43S 07°05' E 012°15'2 8.4
2018-Jun-16 23:29S 07°06' E 012°16'4 8.4
2018-Jun-16 23:00S 07°10' E 012°17'4 8.7
2018-Jun-16 22:30S 07°15' E 012°18'  
2018-Jun-14 16:18S 07°11' E 012°18'2 7.4
2018-Jun-14 16:00S 07°08' E 012°17'4 7.3
2018-Jun-14 15:30S 07°05' E 012°17'4 7.4
2018-Jun-14 15:00S 07°01' E 012°16'4 7.4
2018-Jun-14 14:30S 06°58' E 012°15'4 7.5
2018-Jun-14 14:00S 06°54' E 012°14'4 7.5
2018-Jun-14 13:28S 06°50' E 012°14'  
2018-Jun-10 12:56S 04°46' E 011°50'  
Track history (hours):
 
Tides and Currents Weather Stations Pressure Air Temp Water Temp Dewpoint Dewpoint Depression Visibility Wind Speed Wind Dir Waves Ship Positions

Merlin 3

Last reported at 2018-Jun-16 23:43 UTC. Time now 2018-Jun-20 07:07 UTC.
Position S 07°05' E 012°15'.

Length 50 m; draft 2.3 m.

Type: Cargo ship. MMSI: 377773000.

Date/timePositionNaut miles runAvg speedWind from/ knotsBaromVisibWave heightAir tempDewpointWater temp
2018-Jun-16 23:43S 07°05' E 012°15'2 8.4
2018-Jun-16 23:29S 07°06' E 012°16'4 8.4
2018-Jun-16 23:00S 07°10' E 012°17'4 8.7
2018-Jun-16 22:30S 07°15' E 012°18'  
2018-Jun-14 16:18S 07°11' E 012°18'2 7.4
2018-Jun-14 16:00S 07°08' E 012°17'4 7.3
2018-Jun-14 15:30S 07°05' E 012°17'4 7.4
2018-Jun-14 15:00S 07°01' E 012°16'4 7.4
2018-Jun-14 14:30S 06°58' E 012°15'4 7.5
2018-Jun-14 14:00S 06°54' E 012°14'4 7.5
2018-Jun-14 13:28S 06°50' E 012°14'  
2018-Jun-10 12:56S 04°46' E 011°50'  

Dump ship's entire track history